Time;durP1;ratioP1;P1;durP2;ratioP2;P2;SDS_P1;SDS_P2;PMS_P1;PMS_P2;Temp;Humidity;BMP_temperature;BMP_pressure;BME280_temperature;BME280_humidity;BME280_pressure;Samples;Min_cycle;Max_cycle;Signal;HPM_P1;HPM_P2
2022/04/12 00:01:37;;;;;;;15.60;12.23;;;7.80;99.90;;;;;;5040114;28;20083;-76
2022/04/12 00:04:03;;;;;;;16.50;13.03;;;7.80;99.90;;;;;;5059490;28;20136;-77
2022/04/12 00:06:29;;;;;;;16.80;13.00;;;7.80;99.90;;;;;;5075064;28;20068;-76
2022/04/12 00:08:55;;;;;;;16.33;12.87;;;7.80;99.90;;;;;;5058597;28;20142;-76
2022/04/12 00:11:21;;;;;;;17.80;12.90;;;7.80;99.90;;;;;;5073270;28;20049;-77
2022/04/12 00:13:48;;;;;;;18.57;12.63;;;7.80;99.90;;;;;;5074190;28;20746;-76
2022/04/12 00:16:14;;;;;;;17.87;13.43;;;7.80;99.90;;;;;;5073912;28;20470;-76
2022/04/12 00:21:24;;;;;;;15.80;11.10;;;7.70;99.90;;;;;;5079049;28;20068;-76
2022/04/12 00:23:49;;;;;;;19.93;14.67;;;7.70;99.90;;;;;;5057717;28;20578;-76
2022/04/12 00:26:16;;;;;;;18.37;12.73;;;7.70;99.90;;;;;;5055679;28;20046;-76
2022/04/12 00:28:42;;;;;;;18.17;12.70;;;7.70;99.90;;;;;;5075005;28;20069;-76
2022/04/12 00:31:09;;;;;;;19.27;14.07;;;7.60;99.90;;;;;;5059101;28;20125;-76
2022/04/12 00:33:35;;;;;;;17.77;12.53;;;7.60;99.90;;;;;;5075694;28;20052;-76
2022/04/12 00:36:04;;;;;;;17.50;12.33;;;7.60;99.90;;;;;;5086800;28;20046;-76
2022/04/12 00:38:33;;;;;;;17.00;12.33;;;7.60;99.90;;;;;;5051319;28;20032;-76
2022/04/12 00:40:59;;;;;;;15.63;11.70;;;7.60;99.90;;;;;;5068196;28;20393;-76
2022/04/12 00:43:26;;;;;;;15.70;12.27;;;7.50;99.90;;;;;;5078768;28;20089;-76
2022/04/12 00:45:52;;;;;;;21.50;12.27;;;7.60;99.90;;;;;;5085821;28;20129;-76
2022/04/12 00:48:19;;;;;;;15.67;12.17;;;7.60;99.90;;;;;;5090249;28;20064;-76
2022/04/12 00:50:46;;;;;;;17.33;11.73;;;7.60;99.90;;;;;;5065318;28;20040;-76
2022/04/12 00:53:12;;;;;;;15.53;12.23;;;7.60;99.90;;;;;;5073459;28;20056;-76
2022/04/12 00:55:38;;;;;;;20.77;11.47;;;7.60;99.90;;;;;;5058687;28;20052;-76
2022/04/12 00:58:06;;;;;;;15.70;11.67;;;7.50;99.90;;;;;;5072087;28;20117;-75
2022/04/12 01:00:33;;;;;;;16.03;12.23;;;7.50;99.90;;;;;;5058478;28;20127;-76
2022/04/12 01:02:59;;;;;;;16.50;11.93;;;7.40;99.90;;;;;;5088661;28;20037;-76
2022/04/12 01:05:27;;;;;;;17.30;12.17;;;7.40;99.90;;;;;;5076793;28;20549;-76
2022/04/12 01:07:53;;;;;;;14.53;11.37;;;7.40;99.90;;;;;;5073391;28;20458;-76
2022/04/12 01:10:19;;;;;;;16.63;11.77;;;7.30;99.90;;;;;;5058610;28;20041;-76
2022/04/12 01:12:46;;;;;;;14.77;11.43;;;7.30;99.90;;;;;;5072218;28;20047;-75
2022/04/12 01:15:14;;;;;;;15.30;11.30;;;7.30;99.90;;;;;;5058314;28;20116;-76
2022/04/12 01:17:40;;;;;;;18.10;12.10;;;7.20;99.90;;;;;;5088997;28;20037;-76
2022/04/12 01:20:08;;;;;;;17.07;12.33;;;7.20;99.90;;;;;;5088175;28;20060;-79
2022/04/12 01:22:42;;;;;;;17.33;12.07;;;7.20;99.90;;;;;;5042694;28;20396;-79
2022/04/12 01:25:09;;;;;;;16.47;11.07;;;7.10;99.90;;;;;;5059940;28;20049;-78
2022/04/12 01:27:35;;;;;;;18.77;12.27;;;7.10;99.90;;;;;;5062221;28;20053;-80
2022/04/12 01:30:01;;;;;;;22.13;12.73;;;7.10;99.90;;;;;;5076693;28;20036;-79
2022/04/12 01:32:27;;;;;;;16.27;10.87;;;7.10;99.90;;;;;;5061115;28;20086;-80
2022/04/12 01:34:53;;;;;;;14.87;11.27;;;7.10;99.90;;;;;;5060874;28;20045;-78
2022/04/12 01:37:19;;;;;;;16.07;11.50;;;7.10;99.90;;;;;;5092167;28;20040;-78
2022/04/12 01:39:44;;;;;;;14.03;10.73;;;7.10;99.90;;;;;;5077056;28;20085;-79
2022/04/12 01:42:11;;;;;;;17.33;11.57;;;7.10;99.90;;;;;;5078064;28;20041;-79
2022/04/12 01:44:37;;;;;;;17.90;11.50;;;7.10;99.90;;;;;;5061755;28;20051;-78
2022/04/12 01:47:03;;;;;;;13.23;10.40;;;7.10;99.90;;;;;;5083658;28;20064;-78
2022/04/12 01:49:29;;;;;;;19.10;11.40;;;7.00;99.90;;;;;;5070315;28;20044;-78
2022/04/12 01:51:55;;;;;;;15.83;11.80;;;7.00;99.90;;;;;;5078914;28;20487;-78
2022/04/12 01:54:20;;;;;;;14.87;11.73;;;6.90;99.90;;;;;;5073859;28;20100;-81
2022/04/12 01:56:46;;;;;;;16.70;12.03;;;7.00;99.90;;;;;;5063506;28;20099;-79
2022/04/12 01:59:13;;;;;;;18.23;11.57;;;6.90;99.90;;;;;;5057306;28;20037;-79
2022/04/12 02:01:39;;;;;;;16.30;11.83;;;6.90;99.90;;;;;;5093061;28;20438;-79
2022/04/12 02:04:05;;;;;;;15.33;11.50;;;6.90;99.90;;;;;;5075143;28;20100;-79
2022/04/12 02:06:30;;;;;;;17.47;10.53;;;6.80;99.90;;;;;;5092681;28;20071;-79
2022/04/12 02:08:56;;;;;;;16.73;10.73;;;6.80;99.90;;;;;;5058670;28;20063;-80
2022/04/12 02:11:22;;;;;;;15.47;10.93;;;6.80;99.90;;;;;;5079251;28;20500;-78
2022/04/12 02:13:48;;;;;;;14.27;10.63;;;6.80;99.90;;;;;;5060328;28;20361;-78
2022/04/12 02:16:15;;;;;;;13.90;10.90;;;6.80;99.90;;;;;;5078305;28;20141;-79
2022/04/12 02:18:40;;;;;;;17.03;11.10;;;6.70;99.90;;;;;;5058689;28;20393;-79
2022/04/12 02:21:06;;;;;;;15.80;10.73;;;6.70;99.90;;;;;;5075952;28;20036;-79
2022/04/12 02:23:32;;;;;;;15.57;11.47;;;6.70;99.90;;;;;;5094161;28;20054;-79
2022/04/12 02:25:58;;;;;;;13.37;10.83;;;6.60;99.90;;;;;;5063364;28;20086;-79
2022/04/12 02:28:23;;;;;;;14.90;11.33;;;6.60;99.90;;;;;;5061889;28;20487;-78
2022/04/12 02:30:49;;;;;;;15.27;10.87;;;6.60;99.90;;;;;;5053893;28;20055;-79
2022/04/12 02:33:16;;;;;;;15.63;10.60;;;6.60;99.90;;;;;;5068469;28;20048;-80
2022/04/12 02:35:42;;;;;;;16.10;11.23;;;6.60;99.90;;;;;;5079966;28;20041;-78
2022/04/12 02:38:08;;;;;;;15.87;11.00;;;6.60;99.90;;;;;;5075815;28;20043;-79
2022/04/12 02:40:34;;;;;;;16.13;11.03;;;6.60;99.90;;;;;;5073222;28;20070;-79
2022/04/12 02:42:59;;;;;;;16.87;11.20;;;6.60;99.90;;;;;;5075896;28;20067;-79
2022/04/12 02:45:25;;;;;;;14.47;10.60;;;6.60;99.90;;;;;;5081236;28;20417;-80
2022/04/12 02:47:51;;;;;;;17.20;11.23;;;6.60;99.90;;;;;;5061365;28;20044;-78
2022/04/12 02:50:18;;;;;;;15.33;11.10;;;6.60;99.90;;;;;;5060174;28;20044;-78
2022/04/12 02:52:43;;;;;;;14.47;10.57;;;6.50;99.90;;;;;;5057597;28;20049;-80
2022/04/12 02:55:09;;;;;;;16.97;10.90;;;6.60;99.90;;;;;;5054156;28;20048;-79
2022/04/12 02:57:35;;;;;;;14.33;10.73;;;6.60;99.90;;;;;;5072245;28;20044;-79
2022/04/12 03:00:00;;;;;;;16.20;10.93;;;6.60;99.90;;;;;;5060405;28;20043;-78
2022/04/12 03:02:26;;;;;;;15.50;11.00;;;6.60;99.90;;;;;;5062987;28;20523;-79
2022/04/12 03:04:52;;;;;;;16.80;11.03;;;6.60;99.90;;;;;;5059202;28;20036;-80
2022/04/12 03:07:19;;;;;;;16.90;10.97;;;6.50;99.90;;;;;;5062768;28;20037;-81
2022/04/12 03:09:45;;;;;;;15.67;11.30;;;6.50;99.90;;;;;;5074217;28;20048;-78
2022/04/12 03:12:11;;;;;;;17.43;11.10;;;6.50;99.90;;;;;;5062314;28;20040;-79
2022/04/12 03:14:36;;;;;;;18.13;11.20;;;6.50;99.90;;;;;;5047345;28;20043;-79
2022/04/12 03:17:03;;;;;;;17.73;11.57;;;6.50;99.90;;;;;;5075329;28;20037;-80
2022/04/12 03:19:29;;;;;;;16.30;11.20;;;6.40;99.90;;;;;;5080559;28;20411;-79
2022/04/12 03:21:54;;;;;;;17.13;10.73;;;6.30;99.90;;;;;;5060367;28;20036;-79
2022/04/12 03:24:24;;;;;;;14.00;11.07;;;6.30;99.90;;;;;;5040792;28;20059;-79
2022/04/12 03:26:50;;;;;;;12.90;10.67;;;6.30;99.90;;;;;;5053030;28;20048;-78
2022/04/12 03:29:16;;;;;;;14.40;11.33;;;6.20;99.90;;;;;;5076684;28;20059;-79
2022/04/12 03:31:42;;;;;;;18.87;11.93;;;6.20;99.90;;;;;;5072826;28;20044;-78
2022/04/12 03:34:08;;;;;;;15.60;11.60;;;6.10;99.90;;;;;;5063959;28;20586;-79
2022/04/12 03:36:34;;;;;;;14.27;11.47;;;6.10;99.90;;;;;;5064777;28;20051;-79
2022/04/12 03:39:01;;;;;;;14.07;10.97;;;6.10;99.90;;;;;;5075210;28;20048;-79
2022/04/12 03:41:28;;;;;;;16.53;12.03;;;6.10;99.90;;;;;;5059344;28;20060;-80
2022/04/12 03:43:53;;;;;;;16.23;11.50;;;6.20;99.90;;;;;;5061748;28;20045;-80
2022/04/12 03:46:20;;;;;;;17.30;11.00;;;6.20;99.90;;;;;;5063090;28;20500;-78
2022/04/12 03:48:46;;;;;;;13.93;10.83;;;6.20;99.90;;;;;;5092573;28;20081;-78
2022/04/12 03:51:12;;;;;;;15.73;11.87;;;6.20;99.90;;;;;;5067573;28;20044;-78
2022/04/12 03:53:38;;;;;;;21.40;12.37;;;6.20;99.90;;;;;;5081454;28;20045;-79
2022/04/12 03:56:07;;;;;;;14.80;11.60;;;6.20;99.90;;;;;;5063285;28;20040;-79
2022/04/12 03:58:34;;;;;;;16.57;12.10;;;6.20;99.90;;;;;;5058093;28;20050;-78
2022/04/12 04:01:00;;;;;;;16.00;11.67;;;6.10;99.90;;;;;;5059150;28;20073;-79
2022/04/12 04:03:26;;;;;;;17.20;12.13;;;6.10;99.90;;;;;;5076845;28;20072;-79
2022/04/12 04:05:52;;;;;;;15.63;11.03;;;6.10;99.90;;;;;;5051294;28;20043;-79
2022/04/12 04:08:17;;;;;;;14.73;11.07;;;6.10;99.90;;;;;;5078011;28;20049;-79
2022/04/12 04:10:43;;;;;;;15.47;11.77;;;6.10;99.90;;;;;;5080884;28;20040;-78
2022/04/12 04:13:09;;;;;;;15.63;11.63;;;6.10;99.90;;;;;;5085471;28;20045;-78
2022/04/12 04:15:37;;;;;;;17.27;12.23;;;6.10;99.90;;;;;;5078313;28;20045;-79
2022/04/12 04:18:03;;;;;;;15.87;11.27;;;6.10;99.90;;;;;;5062674;28;20488;-79
2022/04/12 04:20:29;;;;;;;16.33;12.10;;;6.10;99.90;;;;;;5062971;28;20098;-79
2022/04/12 04:22:54;;;;;;;16.60;11.57;;;6.10;99.90;;;;;;5058597;28;20041;-79
2022/04/12 04:25:20;;;;;;;14.00;10.90;;;6.10;99.90;;;;;;5075087;28;20068;-80
2022/04/12 04:27:46;;;;;;;18.57;11.20;;;6.10;99.90;;;;;;5061213;28;20147;-79
2022/04/12 04:30:12;;;;;;;18.60;11.57;;;6.10;99.90;;;;;;5089620;28;20037;-78
2022/04/12 04:32:42;;;;;;;16.10;11.73;;;6.10;99.90;;;;;;5080807;28;20532;-77
2022/04/12 04:35:09;;;;;;;17.33;11.87;;;6.10;99.90;;;;;;5054424;28;20037;-78
2022/04/12 04:37:41;;;;;;;14.37;11.13;;;6.10;99.90;;;;;;5073719;28;20054;-78
2022/04/12 04:40:08;;;;;;;15.43;10.90;;;6.10;99.90;;;;;;5078563;28;20037;-78
2022/04/12 04:42:34;;;;;;;16.93;11.97;;;6.00;99.90;;;;;;5059569;28;20055;-77
2022/04/12 04:45:00;;;;;;;17.03;11.97;;;6.00;99.90;;;;;;5079027;28;20036;-78
2022/04/12 04:47:25;;;;;;;14.77;11.20;;;6.00;99.90;;;;;;5077018;28;20300;-78
2022/04/12 04:49:52;;;;;;;14.30;11.63;;;6.00;99.90;;;;;;5069188;28;20043;-78
2022/04/12 04:52:20;;;;;;;15.03;11.40;;;6.00;99.90;;;;;;5051465;28;20044;-78
2022/04/12 04:54:46;;;;;;;18.10;11.53;;;5.90;99.90;;;;;;5066661;28;20048;-79
2022/04/12 04:57:11;;;;;;;17.23;12.10;;;5.90;99.90;;;;;;5065654;28;20101;-78
2022/04/12 04:59:37;;;;;;;15.90;11.63;;;5.90;99.90;;;;;;5080490;28;20396;-80
2022/04/12 05:02:03;;;;;;;18.00;12.27;;;5.80;99.90;;;;;;5060138;28;20048;-78
2022/04/12 05:04:29;;;;;;;16.47;12.50;;;5.80;99.90;;;;;;5076520;28;20071;-78
2022/04/12 05:06:56;;;;;;;17.13;11.83;;;5.70;99.90;;;;;;5074086;28;20458;-78
2022/04/12 05:09:21;;;;;;;16.20;11.60;;;5.70;99.90;;;;;;5088770;28;20048;-81
2022/04/12 05:11:47;;;;;;;14.90;11.70;;;5.70;99.90;;;;;;5060617;28;20111;-78
2022/04/12 05:14:13;;;;;;;16.53;11.77;;;5.70;99.90;;;;;;5053217;28;20067;-79
2022/04/12 05:16:39;;;;;;;19.90;12.17;;;5.70;99.90;;;;;;5068825;28;20101;-78
2022/04/12 05:19:04;;;;;;;17.27;11.67;;;5.70;99.90;;;;;;5084260;28;20070;-78
2022/04/12 05:21:30;;;;;;;15.53;11.00;;;5.80;99.90;;;;;;5062753;28;20472;-78
2022/04/12 05:23:57;;;;;;;15.07;11.87;;;5.80;99.90;;;;;;5072864;28;20054;-79
2022/04/12 05:26:23;;;;;;;20.27;11.90;;;5.80;99.90;;;;;;5054116;28;20068;-78
2022/04/12 05:29:07;;;;;;;19.10;11.38;;;5.90;99.90;;;;;;5071961;28;20151;-79
2022/04/12 05:31:33;;;;;;;18.13;11.80;;;5.90;99.90;;;;;;5075181;28;20507;-79
2022/04/12 05:33:58;;;;;;;16.20;11.40;;;6.00;99.90;;;;;;5039363;28;20499;-79
2022/04/12 05:36:24;;;;;;;19.13;11.77;;;6.20;99.90;;;;;;5058666;28;20040;-80
2022/04/12 05:38:50;;;;;;;14.57;11.83;;;6.30;99.90;;;;;;5058512;28;20044;-79
2022/04/12 05:41:17;;;;;;;17.57;11.50;;;6.40;99.90;;;;;;5058915;28;20041;-79
2022/04/12 05:43:43;;;;;;;16.60;11.37;;;6.60;99.90;;;;;;5055063;28;20045;-80
2022/04/12 05:46:08;;;;;;;14.37;10.80;;;6.80;99.90;;;;;;5058367;28;20051;-80
2022/04/12 05:48:34;;;;;;;14.33;9.80;;;7.00;99.90;;;;;;5084506;28;20048;-79
2022/04/12 05:51:00;;;;;;;15.73;10.23;;;7.20;99.90;;;;;;5081609;28;20044;-79
2022/04/12 05:53:26;;;;;;;14.33;11.10;;;7.40;99.90;;;;;;5059403;28;20048;-79
2022/04/12 05:55:51;;;;;;;16.63;10.60;;;7.50;99.90;;;;;;5074911;28;20119;-82
2022/04/12 05:58:18;;;;;;;19.03;10.83;;;7.60;99.90;;;;;;5058543;28;20044;-79
2022/04/12 06:00:44;;;;;;;19.63;10.13;;;7.70;99.90;;;;;;5073369;28;20045;-78
2022/04/12 06:03:10;;;;;;;15.73;10.20;;;7.90;99.90;;;;;;5058266;28;20067;-79
2022/04/12 06:05:36;;;;;;;15.30;10.20;;;8.00;99.90;;;;;;5056469;28;20045;-79
2022/04/12 06:08:03;;;;;;;14.60;10.60;;;8.10;99.90;;;;;;5060363;28;20076;-80
2022/04/12 06:10:29;;;;;;;14.03;10.27;;;8.20;99.90;;;;;;5074195;28;20036;-78
2022/04/12 06:12:54;;;;;;;14.47;10.20;;;8.30;99.90;;;;;;5091690;28;20403;-80
2022/04/12 06:15:21;;;;;;;12.63;9.83;;;8.30;99.90;;;;;;5078154;28;20039;-79
2022/04/12 06:17:47;;;;;;;16.57;10.30;;;8.40;99.90;;;;;;5070974;28;20045;-81
2022/04/12 06:20:15;;;;;;;13.13;10.30;;;8.40;99.90;;;;;;5067983;28;20511;-78
2022/04/12 06:22:41;;;;;;;12.70;9.83;;;8.50;99.90;;;;;;5064707;28;20056;-80
2022/04/12 06:25:08;;;;;;;16.00;9.90;;;8.60;99.90;;;;;;5054975;28;20044;-78
2022/04/12 06:27:35;;;;;;;16.80;9.63;;;8.70;99.90;;;;;;5071229;28;20050;-78
2022/04/12 06:30:06;;;;;;;14.57;9.80;;;8.80;99.90;;;;;;5102638;27;20538;-79
2022/04/12 06:32:34;;;;;;;14.27;9.90;;;8.90;99.90;;;;;;5056056;28;20044;-80
2022/04/12 06:34:59;;;;;;;14.00;9.03;;;9.00;99.90;;;;;;5058692;28;20044;-78
2022/04/12 06:37:25;;;;;;;14.73;9.40;;;9.10;99.90;;;;;;5073153;28;20106;-79
2022/04/12 06:39:51;;;;;;;15.70;9.87;;;9.20;99.90;;;;;;5092809;28;20504;-78
2022/04/12 06:42:17;;;;;;;13.37;9.70;;;9.20;99.90;;;;;;5063406;28;20445;-79
2022/04/12 06:44:43;;;;;;;15.40;9.47;;;9.30;99.90;;;;;;5043681;28;20106;-78
2022/04/12 06:47:09;;;;;;;13.23;9.40;;;9.40;99.90;;;;;;5071018;28;20036;-79
2022/04/12 06:49:36;;;;;;;16.57;9.37;;;9.40;99.90;;;;;;5078667;28;20495;-78
2022/04/12 06:52:02;;;;;;;13.93;9.73;;;9.30;99.90;;;;;;5074563;28;20040;-78
2022/04/12 06:54:27;;;;;;;17.10;10.27;;;9.30;99.90;;;;;;5084291;28;20139;-79
2022/04/12 06:56:53;;;;;;;14.80;10.07;;;9.20;99.90;;;;;;5073301;28;20048;-81
2022/04/12 06:59:20;;;;;;;15.17;10.40;;;9.20;99.90;;;;;;5074992;28;20059;-79
2022/04/12 07:01:46;;;;;;;14.07;10.37;;;9.20;99.90;;;;;;5066798;28;20047;-78
2022/04/12 07:04:12;;;;;;;14.97;9.93;;;9.20;99.90;;;;;;5075101;28;20032;-78
2022/04/12 07:06:39;;;;;;;16.37;10.03;;;9.30;99.90;;;;;;5080546;28;20050;-82
2022/04/12 07:09:05;;;;;;;10.47;8.80;;;9.40;99.90;;;;;;5072299;28;20501;-79
2022/04/12 07:11:31;;;;;;;15.43;10.17;;;9.50;99.90;;;;;;5055792;28;20040;-81
2022/04/12 07:13:56;;;;;;;13.27;10.27;;;9.60;99.90;;;;;;5084520;28;20067;-79
2022/04/12 07:16:22;;;;;;;11.93;8.97;;;9.60;99.90;;;;;;5083192;28;20040;-79
2022/04/12 07:18:48;;;;;;;13.73;9.27;;;9.70;99.90;;;;;;5078310;28;20054;-80
2022/04/12 07:21:21;;;;;;;20.00;10.47;;;9.80;99.90;;;;;;5062879;28;20041;-79
2022/04/12 07:23:50;;;;;;;12.80;9.83;;;9.80;99.90;;;;;;5072611;28;20700;-78
2022/04/12 07:26:16;;;;;;;14.13;10.30;;;9.90;99.90;;;;;;5057615;28;20057;-78
2022/04/12 07:28:42;;;;;;;12.70;9.57;;;10.10;99.90;;;;;;5078880;28;20399;-79
2022/04/12 07:31:07;;;;;;;13.63;9.37;;;10.30;99.90;;;;;;5060146;28;20044;-82
2022/04/12 07:33:33;;;;;;;16.90;9.60;;;10.50;99.90;;;;;;5081483;28;20118;-79
2022/04/12 07:35:59;;;;;;;13.80;10.00;;;10.70;99.90;;;;;;5078882;28;20039;-78
2022/04/12 07:38:24;;;;;;;15.27;9.37;;;10.80;99.90;;;;;;5063561;28;20044;-79
2022/04/12 07:40:53;;;;;;;13.50;9.50;;;10.90;99.90;;;;;;5067026;28;21766;-79
2022/04/12 07:43:19;;;;;;;11.83;9.33;;;11.00;99.90;;;;;;5100223;28;20139;-81
2022/04/12 07:45:44;;;;;;;15.43;9.57;;;11.10;99.90;;;;;;5080451;28;20076;-79
2022/04/12 07:48:11;;;;;;;14.60;8.07;;;11.20;99.90;;;;;;5069694;28;20040;-82
2022/04/12 07:50:37;;;;;;;11.40;8.93;;;11.50;99.90;;;;;;5085727;28;20043;-78
2022/04/12 07:53:02;;;;;;;11.37;8.40;;;11.80;99.90;;;;;;5057231;28;20142;-79
2022/04/12 07:55:28;;;;;;;12.47;8.90;;;12.20;99.50;;;;;;5080708;28;20542;-81
2022/04/12 07:57:55;;;;;;;11.77;8.87;;;12.40;99.10;;;;;;5083754;28;20048;-78
2022/04/12 08:00:21;;;;;;;14.87;9.30;;;12.40;99.00;;;;;;5052418;28;20117;-81
2022/04/12 08:02:47;;;;;;;12.50;8.57;;;12.40;98.30;;;;;;5077987;28;20052;-79
2022/04/12 08:05:12;;;;;;;10.77;8.53;;;12.50;98.40;;;;;;5078408;28;20480;-81
2022/04/12 08:07:39;;;;;;;10.97;8.40;;;12.50;98.40;;;;;;5062188;28;20051;-79
2022/04/12 08:10:06;;;;;;;13.10;8.73;;;12.50;98.40;;;;;;5101521;28;20040;-80
2022/04/12 08:12:32;;;;;;;12.03;8.77;;;12.60;97.50;;;;;;5077711;28;20040;-79
2022/04/12 08:14:59;;;;;;;11.60;8.80;;;12.60;97.90;;;;;;5074754;28;20064;-80
2022/04/12 08:17:25;;;;;;;13.27;8.83;;;12.60;97.30;;;;;;5079341;28;20040;-80
2022/04/12 08:19:50;;;;;;;12.77;8.80;;;12.60;97.30;;;;;;5067829;28;20038;-79
2022/04/12 08:22:16;;;;;;;11.30;8.13;;;12.80;96.90;;;;;;5067796;28;20044;-79
2022/04/12 08:24:42;;;;;;;12.20;8.23;;;12.80;97.40;;;;;;5073065;28;20100;-81
2022/04/12 08:27:07;;;;;;;12.87;8.37;;;12.90;97.20;;;;;;5070179;28;20395;-79
2022/04/12 08:29:33;;;;;;;12.23;8.30;;;13.00;97.20;;;;;;5071021;28;20048;-80
2022/04/12 08:32:00;;;;;;;11.13;8.17;;;13.20;96.80;;;;;;5074478;28;20044;-79
2022/04/12 08:34:26;;;;;;;11.90;8.77;;;13.40;96.80;;;;;;5080630;28;20641;-79
2022/04/12 08:36:52;;;;;;;14.10;8.27;;;13.60;95.90;;;;;;5073968;28;20040;-82
2022/04/12 08:39:17;;;;;;;11.90;7.90;;;13.80;94.70;;;;;;5080369;28;20380;-79
2022/04/12 08:41:44;;;;;;;11.40;8.40;;;14.20;95.00;;;;;;5064270;28;20082;-79
2022/04/12 08:44:10;;;;;;;11.73;8.57;;;14.60;94.20;;;;;;5065472;28;21497;-79
2022/04/12 08:46:37;;;;;;;10.57;8.30;;;15.10;93.50;;;;;;5079823;28;20496;-80
2022/04/12 08:49:05;;;;;;;12.00;8.50;;;15.50;92.30;;;;;;5077723;28;20036;-80
2022/04/12 08:51:31;;;;;;;11.17;8.20;;;15.90;91.90;;;;;;5050446;28;20060;-80
2022/04/12 08:53:58;;;;;;;10.80;8.13;;;16.30;91.20;;;;;;5081421;28;20055;-83
2022/04/12 08:56:25;;;;;;;12.43;8.57;;;16.70;91.40;;;;;;5109875;27;20044;-80
2022/04/12 08:58:51;;;;;;;10.47;8.37;;;17.20;88.90;;;;;;5046404;28;20040;-80
2022/04/12 09:01:16;;;;;;;11.83;8.33;;;17.50;87.00;;;;;;5066048;28;20074;-79
2022/04/12 09:03:42;;;;;;;12.90;8.50;;;18.00;88.10;;;;;;5090342;28;20045;-80
2022/04/12 09:06:10;;;;;;;11.20;8.00;;;18.40;85.10;;;;;;5091627;28;20544;-79
2022/04/12 09:08:36;;;;;;;10.13;7.70;;;18.70;81.50;;;;;;5082590;28;20074;-80
2022/04/12 09:11:03;;;;;;;12.07;8.43;;;18.80;80.30;;;;;;5080186;28;20551;-79
2022/04/12 09:13:29;;;;;;;13.93;7.90;;;18.70;79.00;;;;;;5065045;28;20144;-82
2022/04/12 09:15:56;;;;;;;10.80;7.87;;;18.50;78.10;;;;;;5046189;28;20406;-81
2022/04/12 09:18:36;;;;;;;9.40;8.40;;;18.20;80.20;;;;;;5062901;28;20538;-80
2022/04/12 09:21:11;;;;;;;10.80;7.87;;;18.20;80.10;;;;;;5079987;28;20564;-79
2022/04/12 09:23:40;;;;;;;10.40;7.50;;;18.10;79.40;;;;;;5090357;28;20039;-80
2022/04/12 09:26:06;;;;;;;10.10;7.90;;;18.10;79.10;;;;;;5047841;28;20062;-79
2022/04/12 09:28:39;;;;;;;10.43;8.33;;;18.20;81.40;;;;;;5089180;28;20591;-79
2022/04/12 09:31:10;;;;;;;10.00;7.88;;;18.40;77.80;;;;;;5078723;28;20036;-80
2022/04/12 09:33:40;;;;;;;12.60;8.20;;;18.60;75.70;;;;;;5096170;28;20051;-79
2022/04/12 09:36:06;;;;;;;14.73;8.63;;;18.80;74.60;;;;;;5094276;28;20560;-80
2022/04/12 09:38:34;;;;;;;14.23;8.93;;;19.00;73.00;;;;;;5104258;27;20051;-80
2022/04/12 09:41:15;;;;;;;10.33;7.57;;;19.10;72.30;;;;;;5096543;28;20056;-79
2022/04/12 09:43:54;;;;;;;13.13;8.17;;;19.30;72.20;;;;;;5087799;28;20078;-80
2022/04/12 09:46:20;;;;;;;11.13;7.67;;;19.70;74.00;;;;;;5089374;28;20048;-80
2022/04/12 09:48:47;;;;;;;9.70;7.57;;;20.00;72.60;;;;;;5076586;28;20966;-83
2022/04/12 09:51:14;;;;;;;9.97;7.73;;;20.40;71.20;;;;;;5081105;28;20054;-80
2022/04/12 09:53:45;;;;;;;11.37;7.93;;;20.90;70.60;;;;;;5046220;28;20411;-82
2022/04/12 09:56:16;;;;;;;11.80;7.47;;;21.10;64.70;;;;;;5078194;28;20051;-81
2022/04/12 09:58:42;;;;;;;9.77;7.63;;;21.20;65.10;;;;;;5079870;28;20523;-79
2022/04/12 10:01:10;;;;;;;10.60;7.70;;;21.50;63.50;;;;;;5085522;28;20035;-80
2022/04/12 10:03:37;;;;;;;10.07;7.83;;;21.70;62.70;;;;;;5091160;28;20032;-79
2022/04/12 10:06:05;;;;;;;10.30;7.17;;;21.80;64.10;;;;;;5071989;28;20511;-80
2022/04/12 10:08:33;;;;;;;9.60;7.80;;;22.00;61.80;;;;;;5086077;28;20048;-83
2022/04/12 10:11:01;;;;;;;12.03;8.20;;;22.20;61.90;;;;;;5064417;28;20052;-82
2022/04/12 10:13:28;;;;;;;9.77;8.17;;;22.30;61.50;;;;;;5107569;28;20072;-81
2022/04/12 10:15:55;;;;;;;14.80;8.03;;;22.40;63.50;;;;;;5080801;28;20051;-80
2022/04/12 10:18:21;;;;;;;9.43;7.60;;;22.60;61.60;;;;;;5065343;28;20052;-82
2022/04/12 10:20:47;;;;;;;10.10;7.53;;;22.60;60.70;;;;;;5107202;28;20062;-80
2022/04/12 10:23:15;;;;;;;9.57;7.20;;;22.40;56.90;;;;;;5063849;28;20036;-81
2022/04/12 10:25:42;;;;;;;10.30;7.63;;;22.40;58.60;;;;;;5082006;28;20127;-80
2022/04/12 10:28:09;;;;;;;10.90;7.20;;;22.40;57.50;;;;;;5082539;28;20060;-82
2022/04/12 10:30:36;;;;;;;11.03;7.13;;;22.60;59.70;;;;;;5105349;28;20048;-80
2022/04/12 10:33:03;;;;;;;8.50;6.70;;;23.20;60.10;;;;;;5084707;28;20043;-80
2022/04/12 10:35:29;;;;;;;10.43;7.37;;;23.50;57.60;;;;;;5061666;28;20028;-79
2022/04/12 10:37:57;;;;;;;9.63;7.03;;;23.50;54.30;;;;;;5073744;28;20106;-80
2022/04/12 10:40:24;;;;;;;11.20;7.47;;;23.50;54.10;;;;;;5068744;28;20548;-79
2022/04/12 10:42:50;;;;;;;9.60;6.97;;;23.50;51.80;;;;;;5087069;28;20517;-80
2022/04/12 10:45:29;;;;;;;11.23;7.20;;;23.70;54.40;;;;;;5064163;28;20036;-83
2022/04/12 10:47:57;;;;;;;10.73;7.33;;;23.60;50.30;;;;;;5086194;28;20067;-80
2022/04/12 10:50:23;;;;;;;10.83;7.20;;;23.30;51.00;;;;;;5078162;28;20063;-79
2022/04/12 10:52:49;;;;;;;11.23;7.60;;;23.00;51.00;;;;;;5099078;28;20049;-80
2022/04/12 10:55:17;;;;;;;11.77;7.40;;;22.90;51.50;;;;;;5074279;28;20045;-80
2022/04/12 10:57:43;;;;;;;10.63;7.53;;;23.00;53.50;;;;;;5077153;28;20059;-82
2022/04/12 11:00:10;;;;;;;9.67;7.70;;;23.10;52.70;;;;;;5098451;28;20044;-80
2022/04/12 11:02:41;;;;;;;10.30;7.43;;;23.30;53.20;;;;;;5082982;28;20062;-80
2022/04/12 11:05:27;;;;;;;12.60;7.80;;;23.20;52.90;;;;;;5096211;28;20053;-80
2022/04/12 11:07:54;;;;;;;13.23;7.70;;;23.30;53.60;;;;;;5101840;28;20044;-80
2022/04/12 11:10:21;;;;;;;10.83;7.20;;;23.20;52.70;;;;;;5070360;28;20071;-80
2022/04/12 11:12:49;;;;;;;12.63;8.17;;;23.20;53.20;;;;;;5090435;28;20037;-80
2022/04/12 11:15:27;;;;;;;10.07;7.17;;;23.20;51.90;;;;;;5061343;28;20044;-78
2022/04/12 11:18:07;;;;;;;10.23;7.50;;;23.30;51.10;;;;;;5093614;28;20044;-81
2022/04/12 11:20:34;;;;;;;8.77;7.20;;;23.00;52.70;;;;;;5083554;28;20048;-81
2022/04/12 11:23:07;;;;;;;11.70;8.10;;;23.00;53.90;;;;;;5076169;28;20134;-79
2022/04/12 11:25:33;;;;;;;13.48;7.90;;;22.90;53.50;;;;;;5082382;28;20055;-79
2022/04/12 11:27:59;;;;;;;14.10;7.13;;;23.00;54.40;;;;;;5083238;28;20483;-81
2022/04/12 11:30:26;;;;;;;11.40;7.13;;;22.90;54.10;;;;;;5096589;28;20044;-81
2022/04/12 11:32:54;;;;;;;9.63;7.07;;;22.80;54.10;;;;;;5070583;28;20036;-79
2022/04/12 11:35:20;;;;;;;12.17;7.80;;;22.60;54.20;;;;;;5081577;28;20036;-81
2022/04/12 11:37:46;;;;;;;11.10;7.77;;;22.30;54.70;;;;;;5043456;28;20040;-79
2022/04/12 11:40:13;;;;;;;9.90;7.60;;;22.10;54.80;;;;;;5088588;28;20048;-79
2022/04/12 11:42:39;;;;;;;10.53;7.80;;;21.90;58.00;;;;;;5090878;28;20044;-80
2022/04/12 11:45:06;;;;;;;11.00;7.43;;;21.90;58.00;;;;;;5084268;28;21892;-79
2022/04/12 11:47:38;;;;;;;8.70;7.03;;;21.80;55.90;;;;;;5066897;28;20381;-78
2022/04/12 11:50:14;;;;;;;10.83;7.77;;;21.90;56.70;;;;;;5074365;28;20479;-79
2022/04/12 11:52:40;;;;;;;13.00;8.00;;;21.70;56.70;;;;;;5082679;28;20179;-78
2022/04/12 11:55:07;;;;;;;11.87;8.23;;;21.40;57.00;;;;;;5083387;28;20129;-79
2022/04/12 11:57:34;;;;;;;11.43;8.13;;;21.30;57.40;;;;;;5084317;28;20053;-82
2022/04/12 12:00:00;;;;;;;12.33;8.37;;;21.30;58.60;;;;;;5064763;28;20055;-79
2022/04/12 12:02:28;;;;;;;11.80;8.00;;;21.20;58.20;;;;;;5079922;28;20308;-77
2022/04/12 12:04:57;;;;;;;13.43;8.90;;;20.90;58.80;;;;;;5094939;28;22079;-78
2022/04/12 12:07:24;;;;;;;14.10;8.27;;;20.70;58.70;;;;;;5082856;28;20040;-79
2022/04/12 12:09:54;;;;;;;11.80;8.63;;;20.60;57.70;;;;;;5066004;28;20060;-79
2022/04/12 12:12:29;;;;;;;13.47;9.27;;;20.60;59.50;;;;;;5079740;28;20076;-80
2022/04/12 12:14:56;;;;;;;12.60;8.67;;;20.60;60.90;;;;;;5076889;28;20045;-78
2022/04/12 12:17:25;;;;;;;11.33;9.13;;;20.80;59.90;;;;;;5071458;28;21460;-81
2022/04/12 12:19:51;;;;;;;14.33;9.80;;;21.00;59.30;;;;;;5061572;28;20048;-77
2022/04/12 12:22:17;;;;;;;14.37;9.97;;;21.20;60.40;;;;;;5091948;28;20106;-77
2022/04/12 12:24:54;;;;;;;15.03;9.17;;;21.30;59.00;;;;;;5072995;28;20044;-77
2022/04/12 12:27:31;;;;;;;12.23;9.27;;;21.20;59.40;;;;;;5091473;28;20132;-79
2022/04/12 12:30:07;;;;;;;16.43;9.83;;;21.20;59.30;;;;;;5078269;28;20053;-78
2022/04/12 12:32:34;;;;;;;13.60;9.20;;;21.00;57.40;;;;;;5106084;27;20130;-80
2022/04/12 12:35:05;;;;;;;15.27;9.33;;;20.90;59.00;;;;;;5082297;28;20059;-79
2022/04/12 12:37:31;;;;;;;14.97;9.73;;;21.00;60.10;;;;;;5064860;28;20044;-78
2022/04/12 12:39:57;;;;;;;14.33;10.27;;;21.30;60.80;;;;;;5080526;28;20036;-78